createdAt,value
2022-10-30T00:00:41.430Z,17.05
2022-10-30T00:03:03.826Z,17.05
2022-10-30T00:05:06.785Z,17.12
2022-10-30T00:07:08.587Z,17.15
2022-10-30T00:09:10.844Z,17.22
2022-10-30T00:11:13.234Z,17.25
2022-10-30T00:13:17.311Z,17.22
2022-10-30T00:15:19.349Z,17.26
2022-10-30T00:17:21.686Z,17.17
2022-10-30T00:19:23.654Z,17.08
2022-10-30T00:21:25.500Z,17.19
2022-10-30T00:23:27.622Z,17.20
2022-10-30T00:25:29.566Z,17.22
2022-10-30T00:27:31.689Z,17.13
2022-10-30T00:29:33.855Z,17.09
2022-10-30T00:31:35.658Z,17.08
2022-10-30T00:33:37.609Z,17.05
2022-10-30T00:35:40.277Z,17.03
2022-10-30T00:37:42.188Z,17.08
2022-10-30T00:39:44.084Z,17.15
2022-10-30T00:41:46.877Z,17.09
2022-10-30T00:43:49.318Z,17.01
2022-10-30T00:45:51.245Z,17.09
2022-10-30T00:48:03.068Z,17.06
2022-10-30T00:52:52.651Z,16.90
2022-10-30T00:54:57.536Z,17.03
2022-10-30T00:57:01.300Z,17.15
2022-10-30T00:59:09.841Z,17.19
2022-10-30T01:01:19.697Z,17.17
2022-10-30T01:03:23.760Z,17.26
2022-10-30T01:05:29.083Z,17.24
2022-10-30T01:07:30.908Z,17.24
2022-10-30T01:09:33.831Z,17.21
2022-10-30T01:11:35.953Z,17.14
2022-10-30T01:13:39.930Z,17.16
2022-10-30T01:16:10.316Z,17.23
2022-10-30T01:18:23.287Z,17.32
2022-10-30T01:20:49.934Z,17.25
2022-10-30T01:23:15.887Z,17.25
2022-10-30T01:25:36.297Z,17.30
2022-10-30T01:27:50.349Z,17.40
2022-10-30T01:30:00.940Z,17.48
2022-10-30T01:32:16.872Z,17.40
2022-10-30T01:34:24.371Z,17.37
2022-10-30T01:36:33.435Z,17.34
2022-10-30T01:38:42.443Z,17.40
2022-10-30T01:40:45.534Z,17.36
2022-10-30T01:42:53.917Z,17.34
2022-10-30T01:44:56.666Z,17.31
2022-10-30T01:47:27.464Z,17.32
2022-10-30T01:49:29.209Z,17.36
2022-10-30T01:52:18.596Z,17.29
2022-10-30T01:54:52.283Z,17.24
2022-10-30T01:56:57.420Z,17.26
2022-10-30T01:59:05.184Z,17.26
2022-10-30T02:01:07.324Z,17.23
2022-10-30T02:03:09.962Z,17.22
2022-10-30T02:05:19.981Z,17.19
2022-10-30T02:07:22.481Z,17.13
2022-10-30T02:09:25.173Z,17.13
2022-10-30T02:11:27.759Z,17.19
2022-10-30T02:13:29.615Z,17.27
2022-10-30T02:15:32.807Z,17.25
2022-10-30T02:17:34.963Z,17.28
2022-10-30T02:19:36.783Z,17.32
2022-10-30T02:21:39.409Z,17.29
2022-10-30T02:23:41.268Z,17.35
2022-10-30T02:25:43.107Z,17.40
2022-10-30T02:27:45.241Z,17.37
2022-10-30T02:29:47.063Z,17.47
2022-10-30T02:31:49.007Z,17.50
2022-10-30T02:33:51.132Z,17.58
2022-10-30T02:35:53.363Z,17.54
2022-10-30T02:37:55.504Z,17.61
2022-10-30T02:39:57.788Z,17.61
2022-10-30T02:42:02.039Z,17.49
2022-10-30T02:44:04.977Z,17.42
2022-10-30T02:46:07.253Z,17.37
2022-10-30T02:50:30.957Z,17.59
2022-10-30T02:52:33.246Z,17.61
2022-10-30T02:54:36.244Z,17.66
2022-10-30T02:56:40.641Z,17.69
2022-10-30T02:58:43.087Z,17.61
2022-10-30T03:00:45.025Z,17.62
2022-10-30T03:02:46.888Z,17.60
2022-10-30T03:04:49.135Z,17.65
2022-10-30T03:06:50.927Z,17.66
2022-10-30T03:08:52.955Z,17.63
2022-10-30T03:11:00.709Z,17.63
2022-10-30T03:13:02.571Z,17.62
2022-10-30T03:15:05.049Z,17.51
2022-10-30T03:17:07.184Z,17.43
2022-10-30T03:19:09.704Z,17.48
2022-10-30T03:21:15.127Z,17.44
2022-10-30T03:23:17.267Z,17.38
2022-10-30T03:25:23.753Z,17.34
2022-10-30T03:27:25.978Z,17.42
2022-10-30T03:29:28.739Z,17.45
2022-10-30T03:31:31.623Z,17.44
2022-10-30T03:33:34.393Z,17.39
2022-10-30T03:35:36.864Z,17.44
2022-10-30T03:37:38.710Z,17.41
2022-10-30T03:39:40.610Z,17.38
2022-10-30T03:41:43.593Z,17.43
2022-10-30T03:43:45.545Z,17.44
2022-10-30T03:45:52.764Z,17.56
2022-10-30T03:47:55.115Z,17.48
2022-10-30T03:49:57.073Z,17.53
2022-10-30T03:51:58.910Z,17.45
2022-10-30T03:54:01.063Z,17.64
2022-10-30T03:56:04.552Z,17.61
2022-10-30T03:58:07.190Z,17.70
2022-10-30T04:00:10.239Z,17.69
2022-10-30T04:02:12.299Z,17.68
2022-10-30T04:04:14.234Z,17.55
2022-10-30T04:06:16.558Z,17.39
2022-10-30T04:08:18.514Z,17.46
2022-10-30T04:10:23.704Z,17.38
2022-10-30T04:12:26.167Z,17.46
2022-10-30T04:14:28.054Z,17.51
2022-10-30T04:16:29.861Z,17.49
2022-10-30T04:18:31.987Z,17.50
2022-10-30T04:20:33.862Z,17.53
2022-10-30T04:22:35.728Z,17.50
2022-10-30T04:24:39.666Z,17.52
2022-10-30T04:26:41.578Z,17.48
2022-10-30T04:28:43.433Z,17.45
2022-10-30T04:30:47.048Z,17.47
2022-10-30T04:32:49.719Z,17.36
2022-10-30T04:34:53.389Z,17.41
2022-10-30T04:36:55.677Z,17.39
2022-10-30T04:38:57.478Z,17.39
2022-10-30T04:40:59.341Z,17.42
2022-10-30T04:43:03.135Z,17.37
2022-10-30T04:45:05.888Z,17.59
2022-10-30T04:47:08.178Z,17.55
2022-10-30T04:49:10.336Z,17.44
2022-10-30T04:51:12.491Z,17.39
2022-10-30T04:53:16.611Z,17.37
2022-10-30T04:55:19.899Z,17.35
2022-10-30T04:57:21.631Z,17.38
2022-10-30T04:59:23.450Z,17.36
2022-10-30T05:01:25.745Z,17.36
2022-10-30T05:03:27.670Z,17.30
2022-10-30T05:05:31.005Z,17.30
2022-10-30T05:07:33.278Z,17.34
2022-10-30T05:09:35.916Z,17.31
2022-10-30T05:11:37.791Z,17.42
2022-10-30T05:13:39.974Z,17.40
2022-10-30T05:15:41.899Z,17.37
2022-10-30T05:17:43.726Z,17.31
2022-10-30T05:19:45.809Z,17.43
2022-10-30T05:21:47.723Z,17.35
2022-10-30T05:23:49.601Z,17.50
2022-10-30T05:25:51.779Z,17.53
2022-10-30T05:28:06.397Z,17.56
2022-10-30T05:30:08.748Z,17.52
2022-10-30T05:32:10.928Z,17.44
2022-10-30T05:34:12.887Z,17.51
2022-10-30T05:36:14.954Z,17.52
2022-10-30T05:38:17.063Z,17.54
2022-10-30T05:40:19.177Z,17.52
2022-10-30T05:42:21.020Z,17.45
2022-10-30T05:44:40.485Z,17.43
2022-10-30T05:46:45.347Z,17.51
2022-10-30T05:48:47.202Z,17.69
2022-10-30T05:50:50.778Z,17.68
2022-10-30T05:52:57.011Z,17.80
2022-10-30T05:54:59.103Z,17.82
2022-10-30T05:57:01.238Z,17.76
2022-10-30T05:59:03.154Z,17.80
2022-10-30T06:01:08.611Z,17.75
2022-10-30T06:03:12.455Z,17.79
2022-10-30T06:05:14.479Z,17.67
2022-10-30T06:07:16.290Z,17.67
2022-10-30T06:09:18.418Z,17.73
2022-10-30T06:11:20.499Z,17.75
2022-10-30T06:13:22.324Z,17.65
2022-10-30T06:15:24.584Z,17.69
2022-10-30T06:17:26.630Z,17.66
2022-10-30T06:19:28.425Z,17.71
2022-10-30T06:21:30.561Z,17.84
2022-10-30T06:23:32.356Z,17.94
2022-10-30T06:25:40.748Z,17.96
2022-10-30T06:27:43.339Z,18.04
2022-10-30T06:29:45.239Z,18.14
2022-10-30T06:31:47.252Z,18.20
2022-10-30T06:33:49.431Z,18.06
2022-10-30T06:35:51.334Z,18.10
2022-10-30T06:37:54.377Z,18.20
2022-10-30T06:39:56.578Z,18.21
2022-10-30T06:41:58.400Z,18.39
2022-10-30T06:44:00.474Z,18.34
2022-10-30T06:46:02.710Z,18.44
2022-10-30T06:48:04.807Z,18.49
2022-10-30T06:50:10.043Z,18.62
2022-10-30T06:52:12.537Z,18.57
2022-10-30T06:54:14.586Z,18.57
2022-10-30T06:56:16.474Z,18.67
2022-10-30T06:58:18.627Z,18.60
2022-10-30T07:00:20.586Z,18.70
2022-10-30T07:02:22.498Z,18.72
2022-10-30T07:04:24.958Z,18.72
2022-10-30T07:06:26.801Z,18.76
2022-10-30T07:08:28.611Z,18.82
2022-10-30T07:10:31.219Z,18.85
2022-10-30T07:12:33.132Z,19.04
2022-10-30T07:14:35.802Z,19.15
2022-10-30T07:16:37.846Z,19.22
2022-10-30T07:18:39.777Z,19.32
2022-10-30T07:20:41.563Z,19.36
2022-10-30T07:22:43.887Z,19.35
2022-10-30T07:24:45.757Z,19.53
2022-10-30T07:26:47.665Z,19.36
2022-10-30T07:28:49.967Z,19.29
2022-10-30T07:30:51.850Z,19.43
2022-10-30T07:33:02.478Z,19.36
2022-10-30T07:35:06.482Z,19.41
2022-10-30T07:37:08.289Z,19.43
2022-10-30T07:39:10.090Z,19.48
2022-10-30T07:41:12.229Z,19.67
2022-10-30T07:43:16.133Z,19.64
2022-10-30T07:45:19.410Z,19.77
2022-10-30T07:47:23.884Z,19.89
2022-10-30T07:49:25.850Z,19.97
2022-10-30T07:51:27.759Z,19.89
2022-10-30T07:53:30.149Z,19.82
2022-10-30T07:55:31.984Z,19.89
2022-10-30T07:57:41.872Z,19.92
2022-10-30T07:59:44.085Z,20.11
2022-10-30T08:01:46.351Z,20.02
2022-10-30T08:03:48.245Z,19.86
2022-10-30T08:05:50.376Z,19.75
2022-10-30T08:07:52.500Z,20.01
2022-10-30T08:09:54.636Z,20.14
2022-10-30T08:11:56.811Z,20.25
2022-10-30T08:13:58.862Z,20.34
2022-10-30T08:16:00.861Z,20.26
2022-10-30T08:18:03.183Z,20.04
2022-10-30T08:20:05.570Z,19.93
2022-10-30T08:22:07.388Z,20.07
2022-10-30T08:24:09.946Z,20.27
2022-10-30T08:26:11.780Z,20.38
2022-10-30T08:28:14.566Z,20.79
2022-10-30T08:30:16.667Z,20.92
2022-10-30T08:32:18.755Z,20.75
2022-10-30T08:34:20.783Z,20.80
2022-10-30T08:36:23.004Z,20.86
2022-10-30T08:38:25.643Z,20.69
2022-10-30T08:40:29.705Z,20.66
2022-10-30T08:42:31.815Z,20.71
2022-10-30T08:44:33.790Z,20.74
2022-10-30T08:46:35.604Z,20.69
2022-10-30T08:48:38.008Z,20.65
2022-10-30T08:52:42.294Z,20.58
2022-10-30T08:54:44.428Z,20.68
2022-10-30T08:56:46.414Z,20.87
2022-10-30T08:58:48.209Z,21.01
2022-10-30T09:00:50.426Z,20.96
2022-10-30T09:02:52.583Z,21.01
2022-10-30T09:04:54.498Z,20.98
2022-10-30T09:06:56.740Z,20.70
2022-10-30T09:08:58.747Z,20.88
2022-10-30T09:11:00.841Z,20.72
2022-10-30T09:13:03.410Z,20.70
2022-10-30T09:15:06.316Z,20.77
2022-10-30T09:17:08.282Z,20.98
2022-10-30T09:19:14.737Z,21.10
2022-10-30T09:21:19.631Z,21.07
2022-10-30T09:23:21.699Z,20.98
2022-10-30T09:25:23.888Z,20.98
2022-10-30T09:27:25.753Z,20.70
2022-10-30T09:29:27.686Z,20.85
2022-10-30T09:31:29.802Z,20.84
2022-10-30T09:33:31.673Z,20.85
2022-10-30T09:35:37.221Z,21.05
2022-10-30T09:37:39.534Z,20.87
2022-10-30T09:39:41.358Z,20.73
2022-10-30T09:42:01.231Z,20.87
2022-10-30T09:44:40.865Z,20.94
2022-10-30T09:46:58.695Z,21.03
2022-10-30T09:49:27.247Z,21.12
2022-10-30T09:52:02.962Z,21.24
2022-10-30T09:54:37.153Z,21.21
2022-10-30T09:56:44.778Z,21.41
2022-10-30T09:59:22.892Z,21.35
2022-10-30T10:01:42.295Z,21.41
2022-10-30T10:03:58.471Z,21.29
2022-10-30T10:06:02.749Z,21.33
2022-10-30T10:08:10.096Z,21.65
2022-10-30T10:10:27.422Z,21.70
2022-10-30T10:12:40.100Z,21.74
2022-10-30T10:14:46.550Z,21.83
2022-10-30T10:16:57.147Z,22.02
2022-10-30T10:19:10.399Z,21.86
2022-10-30T10:21:18.755Z,21.77
2022-10-30T10:23:30.234Z,21.98
2022-10-30T10:25:32.554Z,21.77
2022-10-30T10:28:01.767Z,21.74
2022-10-30T10:30:17.832Z,21.82
2022-10-30T10:32:28.868Z,21.99
2022-10-30T10:35:18.702Z,21.90
2022-10-30T10:37:36.071Z,21.98
2022-10-30T10:39:43.779Z,22.17
2022-10-30T10:41:54.654Z,22.42
2022-10-30T10:44:15.143Z,22.24
2022-10-30T10:46:27.149Z,22.24
2022-10-30T10:48:34.823Z,22.04
2022-10-30T10:51:00.899Z,22.16
2022-10-30T10:53:14.859Z,22.16
2022-10-30T10:55:20.690Z,21.94
2022-10-30T10:57:22.921Z,21.87
2022-10-30T10:59:38.610Z,21.76
2022-10-30T11:01:46.195Z,21.72
2022-10-30T11:04:05.537Z,21.58
2022-10-30T11:06:35.387Z,21.47
2022-10-30T11:08:37.778Z,21.43
2022-10-30T11:10:40.244Z,21.32
2022-10-30T11:12:42.657Z,21.12
2022-10-30T11:14:44.776Z,21.06
2022-10-30T11:17:27.060Z,21.11
2022-10-30T11:19:31.124Z,21.20
2022-10-30T11:21:38.282Z,21.08
2022-10-30T11:23:41.956Z,21.08
2022-10-30T11:25:43.803Z,21.13
2022-10-30T11:27:49.192Z,21.25
2022-10-30T11:29:59.933Z,21.44
2022-10-30T11:32:04.196Z,21.40
2022-10-30T11:34:18.603Z,21.39
2022-10-30T11:36:25.654Z,21.48
2022-10-30T11:38:27.478Z,21.40
2022-10-30T11:40:29.316Z,21.32
2022-10-30T11:42:33.028Z,21.40
2022-10-30T11:44:44.100Z,21.27
2022-10-30T11:46:46.125Z,21.42
2022-10-30T11:48:54.984Z,21.49
2022-10-30T11:51:00.673Z,21.38
2022-10-30T11:53:11.571Z,21.57
2022-10-30T11:55:38.547Z,21.48
2022-10-30T11:57:47.039Z,21.72
2022-10-30T11:59:51.961Z,21.84
2022-10-30T12:02:19.660Z,21.76
2022-10-30T12:04:27.880Z,21.62
2022-10-30T12:06:30.194Z,21.63
2022-10-30T12:08:32.315Z,21.67
2022-10-30T12:10:39.775Z,21.73
2022-10-30T12:12:42.821Z,21.65
2022-10-30T12:14:45.226Z,21.58
2022-10-30T12:16:50.468Z,21.52
2022-10-30T12:19:09.321Z,21.57
2022-10-30T12:21:19.281Z,21.45
2022-10-30T12:23:26.970Z,21.50
2022-10-30T12:25:31.197Z,21.32
2022-10-30T12:27:38.524Z,21.05
2022-10-30T12:30:09.358Z,21.27
2022-10-30T12:32:19.434Z,21.06
2022-10-30T12:34:41.986Z,21.06
2022-10-30T12:36:53.755Z,21.11
2022-10-30T12:38:58.330Z,21.21
2022-10-30T12:41:18.697Z,21.03
2022-10-30T12:43:27.229Z,20.95
2022-10-30T12:45:36.062Z,20.88
2022-10-30T12:47:56.332Z,20.99
2022-10-30T12:50:10.121Z,20.77
2022-10-30T12:52:35.970Z,20.86
2022-10-30T12:54:54.931Z,20.91
2022-10-30T12:57:12.002Z,20.75
2022-10-30T12:59:26.464Z,20.84
2022-10-30T13:01:59.879Z,20.76
2022-10-30T13:04:40.562Z,20.85
2022-10-30T13:06:52.527Z,20.84
2022-10-30T13:09:02.831Z,20.95
2022-10-30T13:11:16.854Z,21.06
2022-10-30T13:13:26.306Z,21.21
2022-10-30T13:15:32.727Z,21.11
2022-10-30T13:17:34.592Z,21.19
2022-10-30T13:19:36.994Z,21.11
2022-10-30T13:24:15.700Z,21.15
2022-10-30T13:26:39.667Z,21.23
2022-10-30T13:28:47.515Z,21.21
2022-10-30T13:31:12.642Z,21.13
2022-10-30T13:33:27.727Z,21.05
2022-10-30T13:35:33.018Z,21.15
2022-10-30T13:37:39.478Z,21.09
2022-10-30T13:40:00.148Z,21.06
2022-10-30T13:42:29.045Z,20.98
2022-10-30T13:44:39.753Z,20.98
2022-10-30T13:47:07.721Z,20.82
2022-10-30T13:49:25.203Z,20.88
2022-10-30T13:51:30.040Z,20.68
2022-10-30T13:53:36.535Z,20.62
2022-10-30T13:55:41.381Z,20.62
2022-10-30T13:58:07.972Z,20.76
2022-10-30T14:00:22.232Z,20.38
2022-10-30T14:02:58.333Z,20.33
2022-10-30T14:05:03.384Z,20.34
2022-10-30T14:07:36.142Z,20.31
2022-10-30T14:09:59.565Z,20.15
2022-10-30T14:12:53.505Z,20.18
2022-10-30T14:14:55.823Z,20.11
2022-10-30T14:17:16.537Z,20.09
2022-10-30T14:19:18.890Z,19.99
2022-10-30T14:21:43.883Z,19.91
2022-10-30T14:23:45.800Z,19.86
2022-10-30T14:26:11.185Z,20.05
2022-10-30T14:28:20.502Z,19.95
2022-10-30T14:30:22.465Z,19.95
2022-10-30T14:32:24.343Z,19.89
2022-10-30T14:34:57.180Z,19.89
2022-10-30T14:36:59.009Z,19.78
2022-10-30T14:39:03.487Z,19.92
2022-10-30T14:41:15.832Z,19.77
2022-10-30T14:43:31.024Z,19.74
2022-10-30T14:45:49.588Z,19.71
2022-10-30T14:48:10.926Z,19.69
2022-10-30T14:50:33.102Z,19.56
2022-10-30T14:52:59.113Z,19.60
2022-10-30T14:55:20.258Z,19.58
2022-10-30T14:57:51.376Z,19.45
2022-10-30T15:00:29.465Z,19.40
2022-10-30T15:02:54.640Z,19.00
2022-10-30T15:05:19.065Z,18.99
2022-10-30T15:07:38.492Z,19.13
2022-10-30T15:10:04.129Z,19.22
2022-10-30T15:12:31.202Z,19.21
2022-10-30T15:14:53.550Z,19.16
2022-10-30T15:16:56.930Z,19.06
2022-10-30T15:19:04.914Z,19.08
2022-10-30T15:21:08.666Z,18.99
2022-10-30T15:23:24.477Z,19.15
2022-10-30T15:25:32.036Z,19.13
2022-10-30T15:27:36.013Z,18.87
2022-10-30T15:29:39.558Z,18.87
2022-10-30T15:31:41.406Z,18.99
2022-10-30T15:33:45.174Z,19.09
2022-10-30T15:35:47.658Z,19.02
2022-10-30T15:38:10.211Z,18.87
2022-10-30T15:40:19.124Z,18.89
2022-10-30T15:42:21.763Z,18.82
2022-10-30T15:44:27.355Z,18.93
2022-10-30T15:46:29.376Z,18.87
2022-10-30T15:48:34.829Z,18.91
2022-10-30T15:50:41.105Z,19.05
2022-10-30T15:52:44.134Z,19.06
2022-10-30T15:54:48.210Z,19.04
2022-10-30T15:57:31.269Z,19.02
2022-10-30T15:59:28.308Z,18.91
2022-10-30T16:01:43.737Z,18.80
2022-10-30T16:03:53.427Z,18.96
2022-10-30T16:06:16.871Z,19.05
2022-10-30T16:08:24.424Z,19.05
2022-10-30T16:10:30.654Z,19.03
2022-10-30T16:12:34.994Z,19.06
2022-10-30T16:14:37.352Z,19.03
2022-10-30T16:16:39.483Z,19.01
2022-10-30T16:18:41.562Z,18.91
2022-10-30T16:20:47.353Z,18.87
2022-10-30T16:22:49.349Z,18.81
2022-10-30T16:24:51.815Z,18.85
2022-10-30T16:27:07.175Z,18.84
2022-10-30T16:29:17.011Z,18.75
2022-10-30T16:31:20.491Z,18.69
2022-10-30T16:33:26.475Z,18.64
2022-10-30T16:35:28.771Z,18.60
2022-10-30T16:37:36.641Z,18.50
2022-10-30T16:39:39.875Z,18.42
2022-10-30T16:41:43.446Z,18.35
2022-10-30T16:44:05.334Z,18.40
2022-10-30T16:46:35.418Z,18.42
2022-10-30T16:48:37.611Z,18.38
2022-10-30T16:50:39.654Z,18.33
2022-10-30T16:52:43.667Z,18.38
2022-10-30T16:54:57.765Z,18.33
2022-10-30T16:57:02.734Z,18.13
2022-10-30T16:59:15.562Z,18.21
2022-10-30T17:01:17.887Z,18.21
2022-10-30T17:03:26.626Z,18.18
2022-10-30T17:05:32.767Z,18.22
2022-10-30T17:07:34.614Z,18.20
2022-10-30T17:09:38.712Z,18.27
2022-10-30T17:11:47.386Z,18.24
2022-10-30T17:13:55.036Z,18.31
2022-10-30T17:15:58.271Z,18.25
2022-10-30T17:18:20.878Z,18.30
2022-10-30T17:20:25.043Z,18.27
2022-10-30T17:22:30.642Z,18.28
2022-10-30T17:24:35.307Z,18.26
2022-10-30T17:26:41.260Z,18.19
2022-10-30T17:28:44.894Z,18.15
2022-10-30T17:30:47.954Z,18.23
2022-10-30T17:32:54.202Z,18.19
2022-10-30T17:35:02.148Z,18.23
2022-10-30T17:37:04.773Z,18.20
2022-10-30T17:39:06.830Z,18.01
2022-10-30T17:41:13.488Z,17.86
2022-10-30T17:43:15.949Z,17.83
2022-10-30T17:45:17.905Z,17.70
2022-10-30T17:47:20.408Z,17.65
2022-10-30T17:49:27.830Z,17.62
2022-10-30T17:51:32.604Z,17.61
2022-10-30T17:53:37.990Z,17.73
2022-10-30T17:55:41.231Z,17.75
2022-10-30T17:57:42.988Z,17.53
2022-10-30T17:59:44.859Z,17.58
2022-10-30T18:01:49.149Z,17.47
2022-10-30T18:03:53.483Z,17.47
2022-10-30T18:05:55.937Z,17.39
2022-10-30T18:07:58.236Z,17.42
2022-10-30T18:10:01.175Z,17.40
2022-10-30T18:12:04.486Z,17.22
2022-10-30T18:14:12.675Z,17.20
2022-10-30T18:16:20.097Z,17.35
2022-10-30T18:18:21.986Z,17.42
2022-10-30T18:20:24.912Z,17.45
2022-10-30T18:22:26.750Z,17.42
2022-10-30T18:24:28.759Z,17.29
2022-10-30T18:26:35.169Z,17.31
2022-10-30T18:28:39.603Z,17.31
2022-10-30T18:30:43.811Z,17.27
2022-10-30T18:32:46.854Z,17.25
2022-10-30T18:34:48.669Z,17.19
2022-10-30T18:36:50.669Z,17.17
2022-10-30T18:38:52.973Z,17.17
2022-10-30T18:40:54.884Z,17.19
2022-10-30T18:42:58.044Z,17.11
2022-10-30T18:45:00.378Z,17.12
2022-10-30T18:47:05.155Z,17.14
2022-10-30T18:49:07.263Z,16.95
2022-10-30T18:51:16.582Z,17.08
2022-10-30T18:53:18.853Z,17.05
2022-10-30T18:55:41.185Z,16.95
2022-10-30T18:57:43.474Z,16.92
2022-10-30T18:59:45.342Z,16.96
2022-10-30T19:01:47.276Z,16.73
2022-10-30T19:03:49.778Z,16.61
2022-10-30T19:05:51.750Z,16.59
2022-10-30T19:07:54.000Z,16.56
2022-10-30T19:09:56.791Z,16.57
2022-10-30T19:11:58.757Z,16.60
2022-10-30T19:14:00.782Z,16.68
2022-10-30T19:16:03.347Z,16.66
2022-10-30T19:18:06.539Z,16.61
2022-10-30T19:20:08.752Z,16.55
2022-10-30T19:22:11.764Z,16.72
2022-10-30T19:24:15.281Z,16.78
2022-10-30T19:26:17.858Z,16.83
2022-10-30T19:28:20.992Z,16.79
2022-10-30T19:30:23.178Z,16.75
2022-10-30T19:32:25.146Z,16.72
2022-10-30T19:34:27.331Z,16.73
2022-10-30T19:36:36.365Z,16.80
2022-10-30T19:38:38.394Z,16.70
2022-10-30T19:40:41.280Z,16.75
2022-10-30T19:42:43.542Z,16.67
2022-10-30T19:44:45.383Z,16.56
2022-10-30T19:46:47.594Z,16.49
2022-10-30T19:48:58.722Z,16.62
2022-10-30T19:51:01.570Z,16.53
2022-10-30T19:53:04.897Z,16.52
2022-10-30T19:55:07.169Z,16.50
2022-10-30T19:57:13.612Z,16.49
2022-10-30T19:59:16.054Z,16.42
2022-10-30T20:01:18.541Z,16.41
2022-10-30T20:03:20.572Z,16.37
2022-10-30T20:05:27.783Z,16.30
2022-10-30T20:07:31.712Z,16.21
2022-10-30T20:09:36.331Z,16.15
2022-10-30T20:11:38.553Z,16.20
2022-10-30T20:13:41.940Z,16.21
2022-10-30T20:15:44.755Z,16.08
2022-10-30T20:17:48.825Z,15.96
2022-10-30T20:19:50.744Z,15.99
2022-10-30T20:21:52.695Z,15.88
2022-10-30T20:23:54.925Z,15.91
2022-10-30T20:26:04.116Z,15.94
2022-10-30T20:28:18.498Z,15.98
2022-10-30T20:30:22.763Z,15.68
2022-10-30T20:32:24.641Z,15.82
2022-10-30T20:34:26.654Z,15.76
2022-10-30T20:36:28.848Z,15.76
2022-10-30T20:38:35.243Z,15.93
2022-10-30T20:40:37.421Z,15.73
2022-10-30T20:42:39.990Z,15.75
2022-10-30T20:44:41.844Z,15.76
2022-10-30T20:46:43.776Z,15.91
2022-10-30T20:48:46.475Z,15.71
2022-10-30T20:50:54.442Z,15.79
2022-10-30T20:52:58.027Z,15.71
2022-10-30T20:55:16.477Z,15.55
2022-10-30T20:57:28.126Z,15.46
2022-10-30T20:59:32.868Z,15.51
2022-10-30T21:01:36.252Z,15.47
2022-10-30T21:03:38.819Z,15.41
2022-10-30T21:05:44.283Z,15.29
2022-10-30T21:07:47.665Z,15.14
2022-10-30T21:09:49.645Z,15.31
2022-10-30T21:11:51.603Z,15.33
2022-10-30T21:13:56.671Z,15.37
2022-10-30T21:16:05.488Z,15.30
2022-10-30T21:18:07.541Z,15.33
2022-10-30T21:20:10.795Z,15.17
2022-10-30T21:22:12.614Z,15.26
2022-10-30T21:24:14.521Z,15.11
2022-10-30T21:26:16.658Z,14.95
2022-10-30T21:28:18.496Z,14.99
2022-10-30T21:30:20.371Z,15.05
2022-10-30T21:32:22.873Z,15.18
2022-10-30T21:34:24.868Z,15.29
2022-10-30T21:36:27.588Z,15.14
2022-10-30T21:38:32.197Z,15.17
2022-10-30T21:40:34.088Z,15.22
2022-10-30T21:47:49.854Z,15.04
2022-10-30T21:52:32.291Z,14.99
2022-10-30T21:54:34.113Z,15.11
2022-10-30T21:59:06.952Z,14.95
2022-10-30T22:01:18.580Z,15.06
2022-10-30T22:03:20.939Z,14.98
2022-10-30T22:05:23.952Z,14.80
2022-10-30T22:07:26.191Z,15.00
2022-10-30T22:09:28.053Z,14.92
2022-10-30T22:11:29.914Z,14.84
2022-10-30T22:13:32.150Z,14.99
2022-10-30T22:15:34.106Z,14.79
2022-10-30T22:17:36.011Z,14.64
2022-10-30T22:19:38.180Z,14.85
2022-10-30T22:21:40.072Z,14.97
2022-10-30T22:23:42.197Z,14.90
2022-10-30T22:25:44.315Z,14.84
2022-10-30T22:27:47.462Z,14.86
2022-10-30T22:29:49.269Z,14.77
2022-10-30T22:31:51.406Z,15.03
2022-10-30T22:33:54.025Z,14.77
2022-10-30T22:35:56.029Z,14.70
2022-10-30T22:37:58.419Z,15.03
2022-10-30T22:40:00.647Z,14.89
2022-10-30T22:42:03.688Z,14.83
2022-10-30T22:44:08.739Z,14.91
2022-10-30T22:46:11.346Z,14.81
2022-10-30T22:48:13.190Z,14.86
2022-10-30T22:50:15.384Z,14.70
2022-10-30T22:52:17.329Z,14.65
2022-10-30T22:54:19.424Z,14.67
2022-10-30T22:56:24.304Z,14.74
2022-10-30T22:58:30.293Z,14.77
2022-10-30T23:00:32.088Z,14.85
2022-10-30T23:02:34.277Z,14.81
2022-10-30T23:04:37.163Z,14.79
2022-10-30T23:06:39.042Z,14.85
2022-10-30T23:08:41.767Z,14.87
2022-10-30T23:10:43.587Z,14.91
2022-10-30T23:12:45.433Z,14.89
2022-10-30T23:14:47.655Z,14.84
2022-10-30T23:16:49.526Z,14.94
2022-10-30T23:18:51.877Z,14.89
2022-10-30T23:21:00.227Z,15.00
2022-10-30T23:23:04.712Z,15.05
2022-10-30T23:25:06.756Z,15.05
2022-10-30T23:27:08.915Z,14.99
2022-10-30T23:29:10.895Z,14.94
2022-10-30T23:31:26.572Z,15.01
2022-10-30T23:33:28.720Z,15.05
2022-10-30T23:35:30.581Z,15.03
2022-10-30T23:37:32.435Z,14.94
2022-10-30T23:39:35.125Z,15.03
2022-10-30T23:41:37.161Z,14.98
2022-10-30T23:43:38.964Z,15.01
2022-10-30T23:45:41.232Z,15.12
2022-10-30T23:47:43.072Z,15.05
2022-10-30T23:49:45.116Z,14.87
2022-10-30T23:51:47.364Z,14.98
2022-10-30T23:53:49.946Z,14.83
2022-10-30T23:55:55.321Z,14.81
2022-10-30T23:57:57.957Z,14.84
2022-10-30T23:59:59.953Z,14.82
